Time;durP1;ratioP1;P1;durP2;ratioP2;P2;SDS_P1;SDS_P2;PMS_P1;PMS_P2;Temp;Humidity;BMP_temperature;BMP_pressure;BME280_temperature;BME280_humidity;BME280_pressure;Samples;Min_cycle;Max_cycle;Signal;HPM_P1;HPM_P2
2022/03/05 00:00:37;;;;;;;22.75;8.98;;;1.60;99.90;;;;;;5056089;28;20063;-73
2022/03/05 00:03:03;;;;;;;12.13;5.43;;;1.50;99.90;;;;;;5037237;28;20061;-72
2022/03/05 00:05:29;;;;;;;22.20;6.93;;;1.50;99.90;;;;;;5053265;28;20039;-81
2022/03/05 00:07:55;;;;;;;20.37;6.33;;;1.40;99.90;;;;;;5055068;28;20147;-72
2022/03/05 00:10:21;;;;;;;27.02;6.85;;;1.40;99.90;;;;;;5038358;28;20021;-72
2022/03/05 00:12:51;;;;;;;16.00;5.00;;;1.50;99.90;;;;;;5055441;28;20380;-72
2022/03/05 00:15:18;;;;;;;13.50;5.22;;;1.40;99.90;;;;;;5055371;28;20384;-73
2022/03/05 00:17:47;;;;;;;19.52;6.43;;;1.40;99.90;;;;;;5055701;28;20029;-73
2022/03/05 00:20:13;;;;;;;14.65;6.18;;;1.40;99.90;;;;;;5054774;28;20044;-78
2022/03/05 00:22:39;;;;;;;15.80;7.40;;;1.30;99.90;;;;;;5055541;28;20017;-73
2022/03/05 00:25:06;;;;;;;24.15;7.93;;;1.30;99.90;;;;;;5055667;28;20029;-78
2022/03/05 00:27:31;;;;;;;11.18;4.80;;;1.30;99.90;;;;;;5014514;28;20030;-73
2022/03/05 00:29:57;;;;;;;15.87;5.63;;;1.20;99.90;;;;;;5037645;28;20040;-72
2022/03/05 00:32:23;;;;;;;16.20;6.30;;;1.20;99.90;;;;;;5055734;28;20037;-73
2022/03/05 00:34:49;;;;;;;24.93;7.97;;;1.20;99.90;;;;;;5055379;28;20029;-72
2022/03/05 00:37:15;;;;;;;20.37;7.00;;;1.10;99.90;;;;;;5055392;28;20017;-72
2022/03/05 00:39:41;;;;;;;13.10;5.00;;;1.10;99.90;;;;;;5055323;28;20039;-79
2022/03/05 00:42:07;;;;;;;20.92;7.30;;;1.00;99.90;;;;;;5054764;28;20103;-73
2022/03/05 00:44:32;;;;;;;19.23;7.25;;;1.00;99.90;;;;;;5055319;28;20047;-72
2022/03/05 00:46:58;;;;;;;17.33;6.57;;;1.00;99.90;;;;;;5037336;28;20029;-73
2022/03/05 00:49:24;;;;;;;17.90;7.47;;;0.90;99.90;;;;;;5037698;28;20037;-73
2022/03/05 00:51:52;;;;;;;20.60;7.90;;;0.90;99.90;;;;;;5055043;28;20040;-72
2022/03/05 00:54:18;;;;;;;18.38;7.00;;;0.90;99.90;;;;;;5055212;28;20116;-72
2022/03/05 00:56:44;;;;;;;22.65;8.30;;;0.80;99.90;;;;;;5037184;28;20067;-73
2022/03/05 00:59:10;;;;;;;17.47;6.50;;;0.90;99.90;;;;;;5047188;28;20052;-72
2022/03/05 01:01:36;;;;;;;17.47;6.70;;;0.80;99.90;;;;;;5037456;28;20423;-72
2022/03/05 01:04:02;;;;;;;24.50;9.38;;;0.80;99.90;;;;;;5050228;28;20072;-72
2022/03/05 01:06:30;;;;;;;15.70;5.07;;;0.70;99.90;;;;;;5054455;28;20060;-73
2022/03/05 01:09:00;;;;;;;23.95;8.82;;;0.70;99.90;;;;;;5035108;28;20029;-73
2022/03/05 01:11:26;;;;;;;21.10;8.07;;;0.60;99.90;;;;;;5054141;28;20112;-71
2022/03/05 01:13:51;;;;;;;19.80;7.78;;;0.60;99.90;;;;;;5054766;28;20071;-73
2022/03/05 01:16:17;;;;;;;18.63;6.27;;;0.60;99.90;;;;;;5054768;28;20056;-73
2022/03/05 01:18:43;;;;;;;23.77;8.50;;;0.50;99.90;;;;;;5054648;28;20048;-73
2022/03/05 01:21:09;;;;;;;28.33;9.27;;;0.50;99.90;;;;;;5054933;28;20036;-72
2022/03/05 01:23:35;;;;;;;12.25;5.70;;;0.50;99.90;;;;;;5037222;28;20104;-72
2022/03/05 01:26:01;;;;;;;25.90;9.23;;;0.50;99.90;;;;;;5054326;28;20116;-72
2022/03/05 01:28:27;;;;;;;27.25;9.43;;;0.50;99.90;;;;;;5054425;28;20069;-72
2022/03/05 01:30:53;;;;;;;23.00;8.80;;;0.50;99.90;;;;;;5052689;28;20029;-78
2022/03/05 01:33:18;;;;;;;23.60;8.37;;;0.40;99.90;;;;;;5053768;28;20024;-72
2022/03/05 01:35:45;;;;;;;23.70;7.50;;;0.30;99.90;;;;;;5054118;28;20029;-72
2022/03/05 01:38:12;;;;;;;28.85;9.27;;;0.20;99.90;;;;;;5036337;28;20438;-72
2022/03/05 01:40:41;;;;;;;29.30;9.18;;;0.20;99.90;;;;;;5054513;28;20037;-73
2022/03/05 01:43:07;;;;;;;27.67;8.80;;;0.20;99.90;;;;;;5054527;28;20068;-72
2022/03/05 01:45:33;;;;;;;28.48;9.52;;;0.20;99.90;;;;;;5054604;28;20370;-72
2022/03/05 01:48:00;;;;;;;26.83;9.00;;;0.10;99.90;;;;;;5053848;28;20492;-73
2022/03/05 01:50:26;;;;;;;24.00;8.73;;;0.10;99.90;;;;;;5038363;28;20323;-72
2022/03/05 01:52:53;;;;;;;26.48;9.95;;;0.10;99.90;;;;;;5036601;28;20052;-72
2022/03/05 01:55:19;;;;;;;18.50;6.90;;;0.10;99.90;;;;;;5054051;28;20048;-72
2022/03/05 01:57:44;;;;;;;25.52;8.75;;;0.00;99.90;;;;;;5036433;28;20082;-73
2022/03/05 02:00:13;;;;;;;25.17;8.80;;;0.00;99.90;;;;;;5036721;28;20115;-72
2022/03/05 02:02:40;;;;;;;21.63;8.57;;;0.00;99.90;;;;;;5054220;28;20727;-72
2022/03/05 02:05:06;;;;;;;21.88;7.82;;;-0.10;99.90;;;;;;5054281;28;20438;-73
2022/03/05 02:07:32;;;;;;;19.27;6.83;;;-0.20;99.90;;;;;;5035314;28;20021;-72
2022/03/05 02:09:58;;;;;;;22.90;8.90;;;-0.20;99.90;;;;;;5054051;28;20087;-72
2022/03/05 02:12:29;;;;;;;30.92;9.88;;;-0.30;99.90;;;;;;5054187;28;20036;-73
2022/03/05 02:14:55;;;;;;;20.40;8.40;;;-0.40;99.90;;;;;;5053173;28;20041;-73
2022/03/05 02:17:21;;;;;;;31.98;10.00;;;-0.50;99.90;;;;;;5036625;28;20055;-72
2022/03/05 02:19:47;;;;;;;27.03;9.40;;;-0.60;99.90;;;;;;5053838;28;20446;-72
2022/03/05 02:22:13;;;;;;;24.42;9.63;;;-0.60;99.90;;;;;;5054632;28;20079;-81
2022/03/05 02:24:39;;;;;;;24.67;10.10;;;-0.60;99.90;;;;;;5036277;28;20029;-72
2022/03/05 02:27:06;;;;;;;28.60;9.48;;;-0.70;99.90;;;;;;5005230;28;20039;-72
2022/03/05 02:29:33;;;;;;;24.23;8.85;;;-0.80;99.90;;;;;;5053799;28;20086;-72
2022/03/05 02:31:59;;;;;;;23.02;9.23;;;-0.80;99.90;;;;;;5036624;28;20458;-72
2022/03/05 02:34:25;;;;;;;27.90;10.07;;;-0.90;99.90;;;;;;5053591;28;20130;-72
2022/03/05 02:36:51;;;;;;;23.13;9.07;;;-0.90;99.90;;;;;;5054320;28;20320;-73
2022/03/05 02:39:17;;;;;;;30.07;10.30;;;-1.00;99.90;;;;;;5036141;28;20524;-73
2022/03/05 02:41:43;;;;;;;23.03;7.30;;;-1.00;99.90;;;;;;5051313;28;20040;-72
2022/03/05 02:44:09;;;;;;;27.55;9.30;;;-1.00;99.90;;;;;;5055197;28;20379;-72
2022/03/05 02:46:35;;;;;;;25.83;7.00;;;-1.10;99.90;;;;;;5039580;28;20044;-72
2022/03/05 02:49:03;;;;;;;21.67;8.55;;;-1.10;99.90;;;;;;5036672;28;20032;-72
2022/03/05 02:51:29;;;;;;;24.33;8.75;;;-1.10;99.90;;;;;;5057281;28;20025;-72
2022/03/05 02:53:55;;;;;;;26.45;9.20;;;-1.20;99.90;;;;;;5039897;28;20028;-72
2022/03/05 02:56:21;;;;;;;21.87;7.47;;;-1.20;99.90;;;;;;5057016;28;20350;-81
2022/03/05 02:58:47;;;;;;;29.90;10.50;;;-1.30;99.90;;;;;;5057426;28;20025;-72
2022/03/05 03:01:13;;;;;;;24.77;8.80;;;-1.30;99.90;;;;;;5039965;28;20052;-72
2022/03/05 03:03:38;;;;;;;22.67;8.17;;;-1.30;99.90;;;;;;5039533;28;20029;-73
2022/03/05 03:06:05;;;;;;;25.83;9.47;;;-1.30;99.90;;;;;;5038634;28;20115;-72
2022/03/05 03:08:31;;;;;;;28.88;10.45;;;-1.40;99.90;;;;;;5055353;28;20424;-72
2022/03/05 03:10:58;;;;;;;27.53;7.07;;;-1.40;99.90;;;;;;5056195;28;20076;-72
2022/03/05 03:13:23;;;;;;;28.42;9.77;;;-1.40;99.90;;;;;;5056998;28;20039;-73
2022/03/05 03:15:49;;;;;;;28.53;9.87;;;-1.50;99.90;;;;;;5056585;28;20029;-73
2022/03/05 03:18:18;;;;;;;24.73;9.47;;;-1.50;99.90;;;;;;5038516;28;20096;-72
2022/03/05 03:20:44;;;;;;;26.48;9.80;;;-1.60;99.90;;;;;;5056029;28;20052;-73
2022/03/05 03:23:10;;;;;;;32.05;9.98;;;-1.50;99.90;;;;;;5057158;28;20415;-73
2022/03/05 03:25:39;;;;;;;29.23;9.63;;;-1.60;99.90;;;;;;5056769;28;20037;-73
2022/03/05 03:28:05;;;;;;;34.63;10.48;;;-1.60;99.90;;;;;;5056940;28;20017;-72
2022/03/05 03:30:31;;;;;;;32.72;10.35;;;-1.70;99.90;;;;;;5038784;28;20027;-73
2022/03/05 03:32:57;;;;;;;38.13;11.47;;;-1.70;99.90;;;;;;5039027;28;20036;-72
2022/03/05 03:35:23;;;;;;;29.00;10.63;;;-1.70;99.90;;;;;;5045371;28;20033;-73
2022/03/05 03:37:48;;;;;;;17.27;6.57;;;-1.60;99.90;;;;;;5056260;28;20033;-72
2022/03/05 03:40:15;;;;;;;33.40;9.37;;;-1.50;99.90;;;;;;5056599;28;20465;-73
2022/03/05 03:42:42;;;;;;;29.88;9.95;;;-1.50;99.90;;;;;;5038748;28;20029;-72
2022/03/05 03:45:09;;;;;;;27.33;9.73;;;-1.50;99.90;;;;;;5056394;28;20374;-72
2022/03/05 03:47:35;;;;;;;24.30;8.30;;;-1.60;99.90;;;;;;5056327;28;20090;-73
2022/03/05 03:50:01;;;;;;;31.33;11.45;;;-1.60;99.90;;;;;;5056521;28;20156;-71
2022/03/05 03:52:27;;;;;;;23.40;8.15;;;-1.50;99.90;;;;;;5064802;28;20086;-72
2022/03/05 03:54:52;;;;;;;29.77;10.97;;;-1.50;99.90;;;;;;5038268;28;20111;-72
2022/03/05 03:57:18;;;;;;;33.10;10.63;;;-1.60;99.90;;;;;;5056083;28;20312;-72
2022/03/05 03:59:46;;;;;;;32.80;10.33;;;-1.60;99.90;;;;;;5036844;28;20071;-72
2022/03/05 04:02:12;;;;;;;37.08;10.75;;;-1.60;99.90;;;;;;5056054;28;20059;-72
2022/03/05 04:04:38;;;;;;;23.70;7.83;;;-1.70;99.90;;;;;;5055958;28;20549;-73
2022/03/05 04:09:48;;;;;;;32.88;10.30;;;-1.60;99.90;;;;;;5039583;28;20435;-72
2022/03/05 04:12:14;;;;;;;28.57;7.80;;;-1.60;99.90;;;;;;5054078;28;20115;-72
2022/03/05 04:14:40;;;;;;;32.10;7.93;;;-1.60;99.90;;;;;;5037513;28;20044;-72
2022/03/05 04:17:06;;;;;;;28.52;10.75;;;-1.60;99.90;;;;;;5055760;28;20043;-72
2022/03/05 04:19:33;;;;;;;27.75;9.40;;;-1.50;99.90;;;;;;5053748;28;20495;-82
2022/03/05 04:21:59;;;;;;;32.65;11.05;;;-1.50;99.90;;;;;;5055300;28;20027;-73
2022/03/05 04:24:24;;;;;;;21.50;8.17;;;-1.60;99.90;;;;;;5055734;28;20108;-72
2022/03/05 04:26:50;;;;;;;26.83;7.33;;;-1.70;99.90;;;;;;5055260;28;20404;-72
2022/03/05 04:29:16;;;;;;;29.37;8.57;;;-1.60;99.90;;;;;;5037337;28;20028;-72
2022/03/05 04:31:41;;;;;;;31.80;10.97;;;-1.60;99.90;;;;;;5055241;28;20040;-72
2022/03/05 04:34:07;;;;;;;32.17;10.83;;;-1.60;99.90;;;;;;5055097;28;20036;-72
2022/03/05 04:36:33;;;;;;;35.87;10.47;;;-1.60;99.90;;;;;;5055308;28;20517;-81
2022/03/05 04:38:58;;;;;;;31.00;10.47;;;-1.50;99.90;;;;;;5055720;28;20374;-72
2022/03/05 04:41:24;;;;;;;31.67;10.47;;;-1.50;99.90;;;;;;5037416;28;20051;-72
2022/03/05 04:43:50;;;;;;;21.20;7.40;;;-1.50;99.90;;;;;;5037851;28;20048;-72
2022/03/05 04:46:15;;;;;;;35.73;11.80;;;-1.60;99.90;;;;;;5054730;28;20029;-72
2022/03/05 04:48:41;;;;;;;33.17;11.60;;;-1.60;99.90;;;;;;5055543;28;20029;-72
2022/03/05 04:51:07;;;;;;;41.30;12.20;;;-1.60;99.90;;;;;;5055554;28;20056;-72
2022/03/05 04:53:33;;;;;;;37.37;12.60;;;-1.60;99.90;;;;;;5054360;28;20710;-72
2022/03/05 04:55:58;;;;;;;39.67;11.87;;;-1.70;99.90;;;;;;5037209;28;20057;-72
2022/03/05 04:58:24;;;;;;;34.77;11.70;;;-1.80;99.90;;;;;;5054864;28;20723;-71
2022/03/05 05:00:50;;;;;;;30.53;11.13;;;-1.80;99.90;;;;;;5055398;28;20025;-72
2022/03/05 05:03:16;;;;;;;22.90;9.40;;;-1.70;99.90;;;;;;5054880;28;20025;-72
2022/03/05 05:05:41;;;;;;;37.30;11.30;;;-1.70;99.90;;;;;;5054871;28;20040;-72
2022/03/05 05:08:07;;;;;;;38.33;12.23;;;-1.70;99.90;;;;;;5054584;28;20028;-72
2022/03/05 05:10:33;;;;;;;31.83;10.07;;;-1.70;99.90;;;;;;5055187;28;20375;-72
2022/03/05 05:12:59;;;;;;;41.20;11.18;;;-1.70;99.90;;;;;;5053582;28;20028;-72
2022/03/05 05:15:25;;;;;;;32.00;10.87;;;-1.70;99.90;;;;;;5052620;28;20049;-72
2022/03/05 05:17:51;;;;;;;45.87;11.87;;;-1.60;99.90;;;;;;5052127;28;20032;-72
2022/03/05 05:20:16;;;;;;;26.77;8.80;;;-1.60;99.90;;;;;;5051930;28;20032;-80
2022/03/05 05:22:42;;;;;;;37.23;13.33;;;-1.60;99.90;;;;;;5052979;28;20448;-72
2022/03/05 05:25:08;;;;;;;33.90;11.90;;;-1.60;99.90;;;;;;5052732;28;20040;-71
2022/03/05 05:27:38;;;;;;;30.63;10.57;;;-1.70;99.90;;;;;;5052453;28;20037;-71
2022/03/05 05:30:05;;;;;;;39.10;11.63;;;-1.70;99.90;;;;;;5052851;28;20727;-72
2022/03/05 05:32:31;;;;;;;45.08;11.82;;;-1.70;99.90;;;;;;5053121;28;20025;-72
2022/03/05 05:34:57;;;;;;;35.20;12.20;;;-1.70;99.90;;;;;;5053456;28;20033;-71
2022/03/05 05:37:22;;;;;;;38.37;10.47;;;-1.70;99.90;;;;;;5053571;28;20376;-79
2022/03/05 05:39:49;;;;;;;45.10;13.80;;;-1.70;99.90;;;;;;5036474;28;20028;-72
2022/03/05 05:42:15;;;;;;;41.10;11.68;;;-1.80;99.90;;;;;;5035822;28;20355;-72
2022/03/05 05:44:41;;;;;;;34.30;11.10;;;-1.80;99.90;;;;;;5051079;28;20082;-72
2022/03/05 05:47:07;;;;;;;32.08;11.75;;;-1.70;99.90;;;;;;5034310;28;20028;-72
2022/03/05 05:49:34;;;;;;;35.85;12.65;;;-1.80;99.90;;;;;;5052842;28;20041;-72
2022/03/05 05:52:00;;;;;;;35.22;8.63;;;-1.80;99.90;;;;;;5053720;28;20025;-71
2022/03/05 05:54:25;;;;;;;28.90;9.68;;;-1.70;99.90;;;;;;5050731;28;20033;-72
2022/03/05 05:56:51;;;;;;;28.17;8.57;;;-1.80;99.90;;;;;;5051316;28;20067;-71
2022/03/05 05:59:17;;;;;;;32.07;11.43;;;-1.70;99.90;;;;;;5032949;28;20053;-71
2022/03/05 06:01:42;;;;;;;35.57;10.07;;;-1.80;99.90;;;;;;5053723;28;20021;-71
2022/03/05 06:04:08;;;;;;;39.50;12.70;;;-1.70;99.90;;;;;;5052844;28;20025;-72
2022/03/05 06:06:34;;;;;;;39.50;11.40;;;-1.80;99.90;;;;;;5053137;28;20040;-71
2022/03/05 06:09:00;;;;;;;40.63;11.97;;;-1.80;99.90;;;;;;5050020;28;20017;-71
2022/03/05 06:11:26;;;;;;;35.47;12.40;;;-1.80;99.90;;;;;;5052061;28;20021;-72
2022/03/05 06:13:52;;;;;;;43.88;13.70;;;-1.90;99.90;;;;;;5050959;28;20320;-71
2022/03/05 06:16:18;;;;;;;31.03;11.20;;;-1.80;99.90;;;;;;5053278;28;20033;-72
2022/03/05 06:18:44;;;;;;;28.43;8.53;;;-1.80;99.90;;;;;;5053418;28;20244;-71
2022/03/05 06:21:09;;;;;;;35.20;11.97;;;-1.80;99.90;;;;;;5038855;28;20250;-72
2022/03/05 06:23:36;;;;;;;36.63;12.80;;;-1.80;99.90;;;;;;5055553;28;20545;-72
2022/03/05 06:26:02;;;;;;;40.65;11.95;;;-1.80;99.90;;;;;;5055826;28;20037;-80
2022/03/05 06:28:28;;;;;;;38.35;12.65;;;-1.80;99.90;;;;;;5039560;28;20070;-80
2022/03/05 06:30:54;;;;;;;34.80;11.20;;;-1.80;99.90;;;;;;5039087;28;20057;-79
2022/03/05 06:33:20;;;;;;;39.17;12.87;;;-1.80;99.90;;;;;;5039275;28;20033;-71
2022/03/05 06:35:47;;;;;;;35.60;11.60;;;-1.80;99.90;;;;;;5058369;28;20021;-79
2022/03/05 06:38:13;;;;;;;35.33;11.20;;;-1.80;99.90;;;;;;5057710;28;20156;-81
2022/03/05 06:40:39;;;;;;;32.57;11.23;;;-1.70;99.90;;;;;;5040355;28;20112;-72
2022/03/05 06:43:05;;;;;;;45.70;13.47;;;-1.70;99.90;;;;;;5066241;28;20270;-72
2022/03/05 06:45:31;;;;;;;27.70;8.47;;;-1.70;99.90;;;;;;5058155;28;20035;-82
2022/03/05 06:47:57;;;;;;;35.72;11.18;;;-1.70;99.90;;;;;;5057562;28;20050;-72
2022/03/05 06:50:23;;;;;;;27.97;9.67;;;-1.60;99.90;;;;;;5057849;28;20415;-72
2022/03/05 06:52:49;;;;;;;28.93;10.03;;;-1.50;99.90;;;;;;5039967;28;20025;-72
2022/03/05 06:55:16;;;;;;;32.93;12.67;;;-1.50;99.90;;;;;;5057457;28;20277;-73
2022/03/05 06:57:43;;;;;;;51.25;13.43;;;-1.40;99.90;;;;;;5039749;28;20024;-72
2022/03/05 07:00:10;;;;;;;46.53;12.98;;;-1.30;99.90;;;;;;5057149;28;20013;-72
2022/03/05 07:02:37;;;;;;;47.35;13.20;;;-1.30;99.90;;;;;;5056568;28;20415;-82
2022/03/05 07:05:02;;;;;;;37.92;13.27;;;-1.30;99.90;;;;;;5057613;28;20017;-72
2022/03/05 07:07:28;;;;;;;41.07;12.63;;;-1.20;99.90;;;;;;5057317;28;20351;-71
2022/03/05 07:09:54;;;;;;;21.27;7.20;;;-1.00;99.90;;;;;;5039660;28;20119;-71
2022/03/05 07:12:20;;;;;;;27.83;9.00;;;-0.80;99.90;;;;;;5039481;28;20025;-72
2022/03/05 07:14:48;;;;;;;47.43;14.67;;;-0.50;99.90;;;;;;5056912;28;20049;-71
2022/03/05 07:17:18;;;;;;;33.15;12.65;;;-0.10;99.90;;;;;;5063654;28;20031;-72
2022/03/05 07:19:44;;;;;;;34.33;12.35;;;0.30;99.90;;;;;;5040661;28;20029;-82
2022/03/05 07:22:10;;;;;;;37.90;13.15;;;0.70;99.90;;;;;;5054646;28;20315;-83
2022/03/05 07:24:36;;;;;;;32.92;11.77;;;1.20;99.90;;;;;;5039552;28;20106;-72
2022/03/05 07:27:03;;;;;;;38.83;12.23;;;1.70;99.90;;;;;;5056476;28;20024;-71
2022/03/05 07:29:28;;;;;;;41.70;12.25;;;2.10;99.90;;;;;;5056569;28;20021;-73
2022/03/05 07:31:54;;;;;;;36.47;10.70;;;2.60;99.90;;;;;;5055940;28;20090;-72
2022/03/05 07:34:20;;;;;;;36.17;12.93;;;3.20;99.90;;;;;;5057219;28;20040;-72
2022/03/05 07:36:46;;;;;;;30.10;10.00;;;3.20;99.90;;;;;;5056731;28;20059;-81
2022/03/05 07:39:12;;;;;;;46.73;12.20;;;3.30;99.90;;;;;;5037375;28;21378;-72
2022/03/05 07:41:37;;;;;;;40.33;11.83;;;3.40;99.90;;;;;;5054422;28;20040;-72
2022/03/05 07:44:05;;;;;;;42.57;13.30;;;3.80;99.90;;;;;;5054786;28;20036;-72
2022/03/05 07:46:32;;;;;;;39.90;11.07;;;4.20;99.90;;;;;;5047541;28;20082;-81
2022/03/05 07:48:58;;;;;;;38.35;13.18;;;4.30;99.90;;;;;;5034886;28;20061;-73
2022/03/05 07:51:24;;;;;;;32.00;11.45;;;4.30;99.90;;;;;;5038163;28;20029;-72
2022/03/05 07:53:50;;;;;;;45.53;12.18;;;4.40;99.90;;;;;;5038738;28;20131;-81
2022/03/05 07:56:16;;;;;;;29.90;11.00;;;4.60;99.90;;;;;;5056148;28;20112;-72
2022/03/05 07:58:41;;;;;;;30.67;12.43;;;4.60;99.90;;;;;;5056478;28;20511;-72
2022/03/05 08:01:07;;;;;;;30.67;10.80;;;4.50;99.90;;;;;;5056503;28;20037;-72
2022/03/05 08:03:33;;;;;;;26.37;10.60;;;4.50;99.90;;;;;;5055893;28;20083;-72
2022/03/05 08:06:00;;;;;;;34.57;10.90;;;4.40;99.90;;;;;;5038670;28;20111;-73
2022/03/05 08:08:25;;;;;;;;;;;4.80;99.90;;;;;;5056558;28;20032;-72
2022/03/05 08:10:51;;;;;;;41.33;12.67;;;4.80;99.90;;;;;;5039159;28;19909;-72
2022/03/05 08:13:17;;;;;;;31.20;9.33;;;5.00;99.90;;;;;;5022898;28;20266;-72
2022/03/05 08:15:42;;;;;;;32.83;12.90;;;5.20;99.90;;;;;;5054618;28;20049;-72
2022/03/05 08:18:08;;;;;;;28.23;9.37;;;5.20;99.90;;;;;;5054857;28;20028;-72
2022/03/05 08:20:35;;;;;;;44.80;13.90;;;4.80;99.90;;;;;;5053963;28;20028;-77
2022/03/05 08:23:01;;;;;;;30.73;10.75;;;4.70;99.90;;;;;;5052220;28;20025;-72
2022/03/05 08:25:28;;;;;;;38.38;12.63;;;4.80;99.90;;;;;;5051562;28;20036;-71
2022/03/05 08:27:53;;;;;;;;;;;5.10;99.90;;;;;;5053613;28;20471;-72
2022/03/05 08:30:20;;;;;;;34.20;10.27;;;5.10;99.90;;;;;;5053131;28;19999;-72
2022/03/05 08:32:46;;;;;;;27.08;9.65;;;5.20;99.90;;;;;;5044020;28;20258;-72
2022/03/05 08:35:13;;;;;;;41.75;11.13;;;5.00;99.90;;;;;;5043996;28;20028;-72
2022/03/05 08:37:40;;;;;;;23.85;7.53;;;4.70;99.90;;;;;;5049747;28;20056;-73
2022/03/05 08:40:10;;;;;;;24.13;9.05;;;4.70;99.90;;;;;;5037850;28;20040;-72
2022/03/05 08:42:36;;;;;;;34.65;11.75;;;4.70;99.90;;;;;;5050435;28;20036;-72
2022/03/05 08:45:07;;;;;;;33.13;11.35;;;4.70;99.90;;;;;;5041842;28;20340;-82
2022/03/05 08:47:33;;;;;;;41.00;12.48;;;5.30;99.90;;;;;;5041859;28;20044;-73
2022/03/05 08:49:59;;;;;;;27.73;10.18;;;5.70;99.90;;;;;;5053766;28;20025;-72
2022/03/05 08:52:24;;;;;;;30.20;9.50;;;5.50;99.90;;;;;;5044160;28;20373;-72
2022/03/05 08:54:50;;;;;;;40.20;11.80;;;4.90;99.90;;;;;;5047249;28;20043;-72
2022/03/05 08:57:16;;;;;;;43.60;13.90;;;5.10;99.90;;;;;;5053670;28;20412;-73
2022/03/05 08:59:42;;;;;;;37.53;12.70;;;5.40;99.90;;;;;;5054224;28;20036;-72
2022/03/05 09:02:08;;;;;;;40.13;13.70;;;5.10;99.90;;;;;;5037075;28;20082;-84
2022/03/05 09:04:34;;;;;;;37.15;13.75;;;4.80;99.90;;;;;;5037837;28;20103;-85
2022/03/05 09:07:00;;;;;;;31.65;11.50;;;5.50;99.90;;;;;;5055044;28;20033;-72
2022/03/05 09:09:27;;;;;;;31.25;9.70;;;6.00;99.90;;;;;;5055208;28;20028;-73
2022/03/05 09:11:52;;;;;;;33.58;12.63;;;5.90;99.90;;;;;;5036503;28;20032;-73
2022/03/05 09:14:19;;;;;;;27.83;10.17;;;5.00;99.90;;;;;;5053719;28;20108;-72
2022/03/05 09:16:45;;;;;;;39.95;12.88;;;4.80;99.90;;;;;;5052711;28;20471;-72
2022/03/05 09:19:11;;;;;;;36.13;13.37;;;5.10;99.90;;;;;;5023380;28;20167;-72
2022/03/05 09:21:37;;;;;;;30.97;9.57;;;5.40;99.90;;;;;;5031711;28;20028;-73
2022/03/05 09:24:04;;;;;;;36.70;11.70;;;5.90;99.90;;;;;;5030006;28;20024;-73
2022/03/05 09:26:31;;;;;;;39.25;12.23;;;6.10;99.90;;;;;;5045931;28;20319;-72
2022/03/05 09:28:56;;;;;;;39.10;15.10;;;6.10;99.90;;;;;;5047312;28;20033;-72
2022/03/05 09:31:22;;;;;;;35.33;10.30;;;6.10;99.90;;;;;;5045590;28;20382;-72
2022/03/05 09:33:48;;;;;;;30.30;9.73;;;6.10;99.90;;;;;;5045575;28;20025;-73
2022/03/05 09:36:14;;;;;;;29.30;10.43;;;6.20;99.90;;;;;;5042242;28;20029;-72
2022/03/05 09:38:40;;;;;;;34.50;13.30;;;6.30;99.90;;;;;;5029305;28;20022;-72
2022/03/05 09:41:07;;;;;;;39.23;13.27;;;6.00;99.90;;;;;;5043947;28;20324;-72
2022/03/05 09:43:33;;;;;;;;;;;6.50;99.90;;;;;;5047252;28;20033;-72
2022/03/05 09:46:00;;;;;;;34.97;11.85;;;6.30;99.90;;;;;;5043443;28;19917;-72
2022/03/05 09:48:27;;;;;;;36.38;13.13;;;5.90;99.90;;;;;;5045196;28;20036;-72
2022/03/05 09:50:53;;;;;;;;;;;6.10;99.90;;;;;;5046365;28;20036;-73
2022/03/05 09:53:20;;;;;;;30.73;12.38;;;6.10;99.90;;;;;;5047201;28;19916;-72
2022/03/05 09:55:49;;;;;;;33.25;12.57;;;6.20;99.90;;;;;;5050437;28;20041;-72
2022/03/05 09:58:15;;;;;;;35.97;11.95;;;6.10;99.90;;;;;;5048143;28;20030;-72
2022/03/05 10:00:41;;;;;;;33.60;13.30;;;5.60;99.90;;;;;;5031343;28;20033;-73
2022/03/05 10:03:11;;;;;;;24.83;9.85;;;5.60;99.90;;;;;;5049087;28;20345;-73
2022/03/05 10:05:37;;;;;;;37.53;12.68;;;5.70;99.90;;;;;;5049383;28;20120;-72
2022/03/05 10:08:10;;;;;;;35.38;12.38;;;5.90;99.90;;;;;;5028505;28;20108;-73
2022/03/05 10:10:43;;;;;;;35.78;13.27;;;6.20;99.90;;;;;;5049487;28;20036;-72
2022/03/05 10:13:20;;;;;;;43.83;13.40;;;5.90;99.90;;;;;;5050647;28;20423;-73
2022/03/05 10:15:46;;;;;;;40.10;14.00;;;5.80;99.90;;;;;;5050185;28;20037;-72
2022/03/05 10:18:12;;;;;;;41.42;13.68;;;5.70;99.90;;;;;;5037872;28;20110;-73
2022/03/05 10:20:50;;;;;;;35.70;12.70;;;5.30;99.90;;;;;;5049616;28;20067;-74
2022/03/05 10:23:18;;;;;;;33.70;12.60;;;5.10;99.90;;;;;;5050379;28;20021;-73
2022/03/05 10:25:50;;;;;;;38.30;12.35;;;5.10;99.90;;;;;;5049627;28;20033;-73
2022/03/05 10:28:18;;;;;;;39.58;11.98;;;5.10;99.90;;;;;;5038109;28;20071;-73
2022/03/05 10:30:55;;;;;;;40.42;11.82;;;5.00;99.90;;;;;;5047754;28;20021;-73
2022/03/05 10:33:31;;;;;;;33.80;12.38;;;5.10;99.90;;;;;;5032309;28;20024;-73
2022/03/05 10:36:01;;;;;;;34.67;11.83;;;4.90;99.90;;;;;;5048334;28;20025;-72
2022/03/05 10:38:50;;;;;;;35.55;11.35;;;4.80;99.90;;;;;;5032944;28;20029;-81
2022/03/05 10:41:32;;;;;;;36.92;12.50;;;4.40;99.90;;;;;;5048457;28;20104;-73
2022/03/05 10:44:11;;;;;;;35.42;13.25;;;4.40;99.90;;;;;;5037209;28;20048;-74
2022/03/05 10:46:46;;;;;;;37.50;13.73;;;4.40;99.90;;;;;;5036731;28;20028;-73
2022/03/05 10:49:21;;;;;;;33.45;10.82;;;4.50;99.90;;;;;;5037531;28;20033;-73
2022/03/05 10:51:48;;;;;;;30.73;9.63;;;4.50;99.90;;;;;;5050814;28;20100;-73
2022/03/05 10:54:28;;;;;;;40.15;13.15;;;4.40;99.90;;;;;;5046605;28;20028;-73
2022/03/05 10:56:56;;;;;;;41.50;14.43;;;4.40;99.90;;;;;;5043378;28;20080;-73
2022/03/05 10:59:22;;;;;;;27.83;9.55;;;4.30;99.90;;;;;;5041203;28;20021;-73
2022/03/05 11:01:48;;;;;;;43.33;14.65;;;4.40;99.90;;;;;;5052675;28;20360;-73
2022/03/05 11:04:15;;;;;;;21.50;8.02;;;4.60;99.90;;;;;;5049243;28;20037;-73
2022/03/05 11:06:43;;;;;;;38.75;13.60;;;4.80;99.90;;;;;;5045971;28;20025;-73
2022/03/05 11:09:11;;;;;;;31.02;10.43;;;4.90;99.90;;;;;;5044365;28;20104;-73
2022/03/05 11:11:39;;;;;;;35.17;14.35;;;4.90;99.90;;;;;;5034053;28;20052;-73
2022/03/05 11:14:07;;;;;;;29.35;10.88;;;5.00;99.90;;;;;;5044037;28;20053;-73
2022/03/05 11:16:33;;;;;;;30.33;11.65;;;5.20;99.90;;;;;;5047229;28;20032;-73
2022/03/05 11:19:00;;;;;;;29.88;11.13;;;5.30;99.90;;;;;;5051704;28;20055;-73
2022/03/05 11:21:28;;;;;;;30.13;10.98;;;5.30;99.90;;;;;;5054422;28;20040;-75
2022/03/05 11:23:57;;;;;;;29.73;11.65;;;5.30;99.90;;;;;;5053657;28;20059;-73
2022/03/05 11:26:23;;;;;;;35.53;12.50;;;5.30;99.90;;;;;;5052807;28;20052;-80
2022/03/05 11:28:50;;;;;;;34.35;12.57;;;5.40;99.90;;;;;;5036605;28;20021;-73
2022/03/05 11:31:25;;;;;;;24.55;8.73;;;5.30;99.90;;;;;;5056103;28;20033;-73
2022/03/05 11:33:51;;;;;;;30.50;11.43;;;5.40;99.90;;;;;;5051848;28;20043;-73
2022/03/05 11:36:38;;;;;;;23.60;9.60;;;5.40;99.90;;;;;;5034536;28;20059;-73
2022/03/05 11:39:27;;;;;;;41.60;13.20;;;5.40;99.90;;;;;;5050736;28;20315;-81
2022/03/05 11:42:02;;;;;;;39.53;11.57;;;5.70;99.90;;;;;;5054942;28;20032;-74
2022/03/05 11:44:30;;;;;;;37.40;13.18;;;5.70;99.90;;;;;;5058037;28;20048;-73
2022/03/05 11:47:19;;;;;;;31.35;12.98;;;5.80;99.90;;;;;;5056006;28;20296;-73
2022/03/05 11:49:59;;;;;;;31.92;10.98;;;6.00;99.90;;;;;;5042865;28;20404;-74
2022/03/05 11:52:43;;;;;;;36.75;10.38;;;5.90;99.90;;;;;;5046034;28;20025;-74
2022/03/05 11:55:13;;;;;;;27.40;11.02;;;5.80;99.90;;;;;;5053722;28;20033;-73
2022/03/05 11:57:43;;;;;;;34.42;11.70;;;5.70;99.90;;;;;;5053335;28;20027;-74
2022/03/05 12:00:10;;;;;;;30.02;12.82;;;5.70;99.90;;;;;;5052485;28;20422;-73
2022/03/05 12:02:36;;;;;;;;;;;5.80;99.90;;;;;;5060606;28;20017;-74
2022/03/05 12:05:01;;;;;;;31.80;11.93;;;5.90;99.90;;;;;;5043733;28;20036;-74
2022/03/05 12:07:35;;;;;;;36.93;13.70;;;5.90;99.90;;;;;;5054255;28;20112;-73
2022/03/05 12:10:10;;;;;;;37.53;12.88;;;5.90;99.90;;;;;;5043478;28;20358;-74
2022/03/05 12:12:55;;;;;;;34.08;11.60;;;5.80;99.90;;;;;;5044361;28;20056;-73
2022/03/05 12:15:32;;;;;;;38.05;13.93;;;6.00;99.90;;;;;;5052184;28;20048;-73
2022/03/05 12:18:00;;;;;;;34.50;13.73;;;5.80;99.90;;;;;;5050242;28;20025;-74
2022/03/05 12:20:30;;;;;;;35.78;11.65;;;5.80;99.90;;;;;;5053879;28;20314;-73
2022/03/05 12:23:04;;;;;;;27.17;10.68;;;5.90;99.90;;;;;;5045331;28;20402;-74
2022/03/05 12:25:31;;;;;;;25.55;9.48;;;5.90;99.90;;;;;;5054646;28;20021;-73
2022/03/05 12:27:58;;;;;;;36.08;11.93;;;5.90;99.90;;;;;;5041468;28;20033;-76
2022/03/05 12:30:37;;;;;;;27.60;10.45;;;5.90;99.90;;;;;;5053576;28;20025;-73
2022/03/05 12:33:05;;;;;;;47.70;13.88;;;6.10;99.90;;;;;;5055762;28;20047;-81
2022/03/05 12:35:32;;;;;;;35.17;13.48;;;6.10;99.90;;;;;;5055516;28;20033;-73
2022/03/05 12:37:58;;;;;;;29.35;11.50;;;6.20;99.90;;;;;;5043244;28;20415;-73
2022/03/05 12:40:28;;;;;;;22.33;7.73;;;6.30;99.90;;;;;;5053884;28;20025;-73